createdAt,value
2023-04-09T00:01:23.914Z,32.40
2023-04-09T00:03:17.304Z,32.50
2023-04-09T00:05:10.474Z,30.10
2023-04-09T00:07:03.425Z,32.70
2023-04-09T00:08:56.367Z,31.50
2023-04-09T00:10:50.548Z,30.50
2023-04-09T00:12:43.604Z,32.00
2023-04-09T00:14:36.645Z,33.40
2023-04-09T00:16:29.643Z,32.40
2023-04-09T00:18:22.507Z,30.70
2023-04-09T00:20:15.697Z,31.60
2023-04-09T00:22:08.661Z,31.30
2023-04-09T00:24:01.696Z,32.20
2023-04-09T00:25:54.879Z,32.00
2023-04-09T00:27:47.909Z,31.40
2023-04-09T00:29:41.255Z,32.90
2023-04-09T00:31:34.583Z,31.30
2023-04-09T00:33:27.672Z,32.20
2023-04-09T00:35:20.821Z,33.30
2023-04-09T00:37:13.765Z,33.10
2023-04-09T00:39:06.815Z,34.20
2023-04-09T00:40:59.760Z,34.10
2023-04-09T00:42:52.808Z,34.90
2023-04-09T00:44:45.724Z,32.30
2023-04-09T00:46:38.924Z,33.50
2023-04-09T00:48:32.174Z,31.80
2023-04-09T00:50:25.528Z,33.50
2023-04-09T00:52:18.689Z,34.10
2023-04-09T00:54:12.203Z,34.20
2023-04-09T00:56:06.405Z,34.80
2023-04-09T00:57:59.473Z,35.50
2023-04-09T00:59:52.521Z,33.90
2023-04-09T01:01:46.124Z,33.60
2023-04-09T01:03:39.830Z,32.30
2023-04-09T01:06:14.370Z,32.20
2023-04-09T01:08:19.420Z,32.20
2023-04-09T01:10:34.877Z,33.20
2023-04-09T01:12:54.766Z,31.90
2023-04-09T01:14:54.059Z,31.70
2023-04-09T01:17:05.030Z,32.20
2023-04-09T01:19:03.096Z,33.70
2023-04-09T01:21:09.971Z,34.40
2023-04-09T01:23:18.172Z,33.00
2023-04-09T01:25:20.132Z,30.50
2023-04-09T01:27:14.824Z,32.40
2023-04-09T01:29:26.163Z,31.80
2023-04-09T01:31:21.783Z,32.40
2023-04-09T01:33:20.083Z,31.40
2023-04-09T01:35:14.364Z,32.30
2023-04-09T01:37:08.851Z,31.90
2023-04-09T01:39:02.557Z,31.60
2023-04-09T01:40:57.618Z,31.40
2023-04-09T01:42:52.263Z,31.10
2023-04-09T01:44:46.811Z,32.30
2023-04-09T01:46:40.861Z,33.00
2023-04-09T01:48:35.350Z,32.30
2023-04-09T01:50:29.015Z,32.40
2023-04-09T01:52:22.136Z,32.50
2023-04-09T01:54:17.051Z,32.70
2023-04-09T01:56:10.837Z,31.70
2023-04-09T01:58:04.180Z,31.20
2023-04-09T01:59:57.232Z,30.00
2023-04-09T02:01:55.232Z,30.80
2023-04-09T02:04:01.330Z,31.00
2023-04-09T02:06:15.704Z,30.40
2023-04-09T02:08:16.891Z,29.60
2023-04-09T02:10:12.154Z,31.60
2023-04-09T02:12:11.044Z,30.20
2023-04-09T02:14:06.029Z,30.90
2023-04-09T02:16:00.458Z,30.00
2023-04-09T02:17:53.693Z,28.50
2023-04-09T02:19:48.469Z,29.40
2023-04-09T02:21:42.025Z,29.90
2023-04-09T02:23:35.177Z,30.70
2023-04-09T02:25:28.288Z,31.00
2023-04-09T02:27:21.492Z,28.90
2023-04-09T02:29:14.433Z,30.70
2023-04-09T02:31:07.421Z,30.00
2023-04-09T02:33:00.460Z,28.70
2023-04-09T02:34:53.481Z,30.10
2023-04-09T02:36:46.533Z,30.60
2023-04-09T02:38:43.076Z,30.70
2023-04-09T02:40:35.961Z,30.30
2023-04-09T02:42:28.860Z,30.70
2023-04-09T02:44:21.910Z,31.60
2023-04-09T02:46:15.203Z,30.70
2023-04-09T02:48:08.317Z,31.30
2023-04-09T02:50:01.675Z,30.40
2023-04-09T02:51:55.541Z,31.50
2023-04-09T02:53:48.800Z,31.60
2023-04-09T02:55:41.849Z,30.00
2023-04-09T02:57:34.901Z,30.40
2023-04-09T02:59:27.949Z,31.20
2023-04-09T03:01:21.141Z,32.30
2023-04-09T03:03:14.247Z,31.40
2023-04-09T03:05:08.027Z,31.70
2023-04-09T03:07:00.997Z,31.50
2023-04-09T03:08:54.128Z,30.60
2023-04-09T03:10:47.075Z,31.30
2023-04-09T03:12:40.027Z,30.50
2023-04-09T03:14:34.766Z,31.00
2023-04-09T03:16:28.889Z,30.80
2023-04-09T03:18:21.941Z,31.20
2023-04-09T03:20:14.888Z,29.80
2023-04-09T03:22:07.940Z,31.20
2023-04-09T03:24:02.323Z,31.20
2023-04-09T03:26:03.870Z,30.10
2023-04-09T03:27:59.998Z,30.60
2023-04-09T03:30:02.676Z,30.20
2023-04-09T03:32:02.069Z,31.60
2023-04-09T03:33:55.030Z,30.80
2023-04-09T03:35:48.263Z,33.00
2023-04-09T03:37:41.734Z,36.40
2023-04-09T03:39:39.501Z,37.90
2023-04-09T03:41:33.571Z,34.90
2023-04-09T03:43:29.392Z,32.10
2023-04-09T03:45:22.336Z,33.60
2023-04-09T03:47:16.618Z,33.10
2023-04-09T03:49:09.665Z,32.90
2023-04-09T03:51:06.502Z,33.00
2023-04-09T03:53:03.544Z,34.20
2023-04-09T03:54:58.952Z,31.70
2023-04-09T03:56:52.138Z,32.60
2023-04-09T03:58:49.844Z,32.10
2023-04-09T04:00:44.040Z,33.20
2023-04-09T04:02:52.892Z,32.90
2023-04-09T04:05:00.475Z,33.10
2023-04-09T04:06:56.894Z,33.60
2023-04-09T04:08:59.658Z,35.00
2023-04-09T04:11:05.221Z,33.40
2023-04-09T04:12:59.037Z,34.80
2023-04-09T04:15:01.137Z,33.20
2023-04-09T04:17:03.821Z,35.20
2023-04-09T04:18:57.679Z,36.20
2023-04-09T04:20:50.836Z,34.90
2023-04-09T04:22:43.908Z,35.20
2023-04-09T04:24:36.831Z,36.60
2023-04-09T04:26:30.394Z,34.30
2023-04-09T04:28:23.443Z,33.60
2023-04-09T04:30:16.709Z,34.10
2023-04-09T04:32:25.541Z,34.00
2023-04-09T04:34:18.794Z,33.30
2023-04-09T04:36:14.710Z,33.30
2023-04-09T04:38:12.054Z,34.10
2023-04-09T04:40:06.335Z,34.70
2023-04-09T04:42:01.433Z,34.80
2023-04-09T04:43:54.574Z,35.00
2023-04-09T04:45:49.307Z,35.30
2023-04-09T04:47:42.443Z,34.40
2023-04-09T04:49:35.673Z,34.10
2023-04-09T04:51:31.874Z,35.10
2023-04-09T04:53:28.736Z,35.30
2023-04-09T04:55:23.133Z,40.80
2023-04-09T04:57:16.789Z,47.30
2023-04-09T04:59:09.739Z,69.10
2023-04-09T05:01:13.387Z,63.50
2023-04-09T05:03:06.897Z,54.50
2023-04-09T05:05:12.741Z,41.70
2023-04-09T05:07:11.018Z,41.30
2023-04-09T05:09:08.060Z,37.90
2023-04-09T05:11:13.275Z,35.00
2023-04-09T05:13:06.658Z,36.10
2023-04-09T05:15:02.220Z,34.60
2023-04-09T05:16:56.466Z,34.90
2023-04-09T05:18:52.756Z,36.90
2023-04-09T05:20:45.929Z,41.40
2023-04-09T05:22:39.079Z,36.70
2023-04-09T05:24:31.974Z,57.70
2023-04-09T05:26:25.074Z,41.00
2023-04-09T05:28:21.298Z,38.90
2023-04-09T05:30:16.661Z,38.20
2023-04-09T05:32:09.649Z,35.10
2023-04-09T05:34:04.446Z,34.50
2023-04-09T05:36:17.075Z,35.40
2023-04-09T05:38:10.821Z,35.40
2023-04-09T05:40:05.739Z,34.30
2023-04-09T05:41:58.882Z,37.80
2023-04-09T05:44:05.848Z,35.40
2023-04-09T05:45:59.179Z,35.50
2023-04-09T05:47:52.617Z,36.20
2023-04-09T05:49:48.279Z,36.80
2023-04-09T05:51:43.310Z,36.00
2023-04-09T05:53:36.939Z,37.30
2023-04-09T05:55:32.556Z,38.20
2023-04-09T05:57:26.417Z,40.10
2023-04-09T05:59:23.782Z,42.50
2023-04-09T06:01:16.822Z,40.40
2023-04-09T06:03:09.981Z,43.60
2023-04-09T06:05:03.325Z,39.80
2023-04-09T06:07:00.217Z,39.10
2023-04-09T06:08:53.639Z,42.00
2023-04-09T06:10:46.778Z,40.20
2023-04-09T06:12:39.729Z,39.90
2023-04-09T06:14:33.322Z,37.60
2023-04-09T06:16:26.446Z,38.60
2023-04-09T06:18:19.557Z,37.20
2023-04-09T06:20:12.551Z,36.80
2023-04-09T06:22:05.785Z,36.60
2023-04-09T06:23:58.858Z,38.00
2023-04-09T06:25:51.806Z,39.60
2023-04-09T06:27:44.865Z,41.30
2023-04-09T06:29:37.760Z,45.10
2023-04-09T06:31:30.723Z,41.70
2023-04-09T06:33:24.289Z,42.10
2023-04-09T06:35:17.358Z,38.90
2023-04-09T06:37:10.308Z,38.80
2023-04-09T06:39:03.458Z,37.30
2023-04-09T06:40:57.539Z,34.60
2023-04-09T06:42:50.587Z,36.50
2023-04-09T06:44:48.038Z,42.30
2023-04-09T06:46:41.095Z,37.90
2023-04-09T06:48:34.343Z,37.30
2023-04-09T06:50:27.918Z,38.10
2023-04-09T06:52:20.956Z,39.50
2023-04-09T06:54:14.211Z,40.70
2023-04-09T06:56:07.676Z,42.70
2023-04-09T06:58:02.899Z,44.20
2023-04-09T06:59:55.923Z,41.50
2023-04-09T07:01:49.104Z,44.00
2023-04-09T07:03:42.512Z,45.00
2023-04-09T07:05:36.615Z,44.70
2023-04-09T07:07:30.277Z,42.90
2023-04-09T07:09:23.330Z,44.60
2023-04-09T07:11:17.326Z,41.20
2023-04-09T07:13:10.760Z,40.50
2023-04-09T07:15:06.251Z,40.20
2023-04-09T07:16:59.350Z,41.00
2023-04-09T07:18:52.381Z,41.90
2023-04-09T07:20:45.419Z,40.10
2023-04-09T07:22:38.986Z,41.70
2023-04-09T07:24:32.607Z,40.20
2023-04-09T07:26:25.697Z,41.00
2023-04-09T07:28:18.645Z,38.90
2023-04-09T07:30:11.716Z,40.30
2023-04-09T07:32:04.949Z,42.00
2023-04-09T07:33:58.206Z,41.80
2023-04-09T07:35:51.977Z,43.00
2023-04-09T07:37:46.577Z,41.40
2023-04-09T07:39:39.713Z,41.90
2023-04-09T07:41:32.762Z,40.50
2023-04-09T07:43:25.798Z,43.60
2023-04-09T07:45:18.978Z,45.10
2023-04-09T07:47:13.099Z,46.70
2023-04-09T07:49:06.109Z,46.60
2023-04-09T07:50:59.144Z,44.50
2023-04-09T07:52:52.095Z,51.40
2023-04-09T07:54:45.354Z,50.50
2023-04-09T07:56:38.610Z,48.20
2023-04-09T07:58:31.767Z,49.50
2023-04-09T08:00:25.015Z,50.20
2023-04-09T08:02:18.418Z,49.80
2023-04-09T08:04:13.397Z,46.60
2023-04-09T08:06:07.550Z,45.00
2023-04-09T08:08:00.596Z,45.20
2023-04-09T08:09:53.644Z,46.10
2023-04-09T08:11:48.122Z,44.00
2023-04-09T08:13:41.178Z,44.30
2023-04-09T08:15:34.128Z,46.60
2023-04-09T08:17:57.206Z,43.10
2023-04-09T08:19:58.535Z,43.50
2023-04-09T08:21:52.716Z,44.40
2023-04-09T08:23:45.753Z,46.80
2023-04-09T08:25:38.806Z,42.20
2023-04-09T08:27:32.777Z,42.60
2023-04-09T08:29:27.055Z,44.50
2023-04-09T08:31:20.008Z,43.70
2023-04-09T08:33:14.077Z,46.00
2023-04-09T08:35:07.748Z,43.90
2023-04-09T08:37:00.795Z,42.80
2023-04-09T08:38:56.162Z,43.30
2023-04-09T08:40:49.561Z,44.00
2023-04-09T08:42:46.586Z,41.30
2023-04-09T08:44:39.650Z,40.60
2023-04-09T08:46:32.701Z,40.70
2023-04-09T08:48:25.834Z,42.50
2023-04-09T08:50:20.255Z,41.40
2023-04-09T08:52:13.288Z,45.60
2023-04-09T08:54:07.567Z,40.80
2023-04-09T08:56:00.544Z,40.50
2023-04-09T08:57:53.574Z,43.20
2023-04-09T08:59:46.720Z,44.40
2023-04-09T09:01:39.766Z,47.90
2023-04-09T09:03:51.821Z,44.50
2023-04-09T09:05:46.875Z,42.40
2023-04-09T09:07:54.772Z,46.70
2023-04-09T09:09:52.711Z,42.30
2023-04-09T09:11:48.505Z,55.50
2023-04-09T09:13:41.485Z,42.00
2023-04-09T09:15:34.542Z,40.40
2023-04-09T09:17:27.702Z,39.10
2023-04-09T09:19:26.803Z,39.40
2023-04-09T09:21:20.035Z,38.40
2023-04-09T09:23:13.290Z,36.80
2023-04-09T09:25:13.139Z,40.20
2023-04-09T09:27:06.152Z,41.80
2023-04-09T09:29:04.188Z,39.40
2023-04-09T09:31:08.582Z,40.70
2023-04-09T09:33:07.234Z,35.40
2023-04-09T09:35:07.351Z,35.10
2023-04-09T09:37:00.487Z,35.50
2023-04-09T09:38:56.361Z,38.20
2023-04-09T09:40:49.968Z,39.20
2023-04-09T09:42:56.137Z,37.60
2023-04-09T09:44:50.306Z,34.80
2023-04-09T09:46:43.360Z,35.40
2023-04-09T09:48:36.410Z,35.50
2023-04-09T09:50:31.197Z,34.90
2023-04-09T09:52:27.074Z,33.50
2023-04-09T09:54:25.598Z,34.80
2023-04-09T09:56:24.759Z,35.30
2023-04-09T09:58:23.751Z,34.20
2023-04-09T10:00:18.632Z,34.70
2023-04-09T10:02:19.612Z,33.30
2023-04-09T10:04:15.207Z,34.60
2023-04-09T10:06:09.292Z,32.90
2023-04-09T10:08:03.161Z,33.10
2023-04-09T10:09:57.443Z,34.10
2023-04-09T10:11:50.595Z,36.20
2023-04-09T10:13:52.765Z,34.50
2023-04-09T10:15:47.660Z,36.40
2023-04-09T10:17:40.617Z,34.60
2023-04-09T10:19:41.638Z,34.20
2023-04-09T10:21:47.727Z,33.70
2023-04-09T10:23:42.942Z,33.00
2023-04-09T10:25:35.847Z,31.00
2023-04-09T10:27:28.998Z,30.80
2023-04-09T10:29:29.218Z,32.80
2023-04-09T10:31:22.199Z,29.90
2023-04-09T10:33:17.576Z,29.60
2023-04-09T10:35:10.719Z,33.00
2023-04-09T10:37:04.191Z,35.60
2023-04-09T10:38:57.330Z,32.20
2023-04-09T10:40:53.558Z,36.10
2023-04-09T10:42:47.645Z,40.90
2023-04-09T10:44:43.959Z,36.70
2023-04-09T10:46:44.270Z,35.90
2023-04-09T10:48:37.233Z,32.80
2023-04-09T10:50:33.043Z,31.50
2023-04-09T10:52:30.498Z,31.50
2023-04-09T10:54:35.272Z,30.00
2023-04-09T10:56:28.171Z,33.70
2023-04-09T10:58:21.428Z,42.20
2023-04-09T11:00:14.410Z,42.50
2023-04-09T11:02:28.603Z,29.70
2023-04-09T11:04:22.255Z,28.50
2023-04-09T11:06:18.231Z,30.30
2023-04-09T11:08:12.744Z,26.60
2023-04-09T11:10:06.326Z,26.30
2023-04-09T11:11:59.219Z,28.00
2023-04-09T11:13:52.052Z,26.50
2023-04-09T11:15:46.283Z,25.20
2023-04-09T11:17:39.841Z,28.20
2023-04-09T11:19:36.219Z,25.50
2023-04-09T11:21:29.183Z,23.70
2023-04-09T11:23:26.634Z,23.40
2023-04-09T11:25:54.931Z,23.00
2023-04-09T11:27:48.554Z,26.50
2023-04-09T11:29:44.370Z,23.30
2023-04-09T11:31:46.321Z,22.50
2023-04-09T11:33:39.277Z,22.00
2023-04-09T11:35:34.422Z,22.40
2023-04-09T11:37:27.426Z,21.20
2023-04-09T11:39:20.738Z,20.70
2023-04-09T11:41:14.243Z,21.60
2023-04-09T11:43:08.419Z,21.00
2023-04-09T11:45:01.792Z,21.50
2023-04-09T11:46:54.956Z,21.00
2023-04-09T11:48:49.015Z,20.30
2023-04-09T11:50:42.163Z,21.10
2023-04-09T11:52:36.656Z,20.50
2023-04-09T11:54:39.258Z,19.00
2023-04-09T11:56:33.299Z,20.40
2023-04-09T11:58:26.589Z,20.90
2023-04-09T12:00:20.419Z,19.50
2023-04-09T12:02:18.443Z,20.70
2023-04-09T12:04:20.775Z,18.40
2023-04-09T12:06:13.807Z,19.80
2023-04-09T12:08:08.730Z,18.20
2023-04-09T12:10:10.232Z,20.30
2023-04-09T12:12:03.306Z,21.30
2023-04-09T12:14:01.800Z,19.30
2023-04-09T12:15:57.432Z,18.90
2023-04-09T12:17:58.405Z,20.90
2023-04-09T12:19:52.249Z,20.20
2023-04-09T12:21:54.850Z,19.50
2023-04-09T12:23:47.724Z,19.20
2023-04-09T12:25:43.117Z,20.80
2023-04-09T12:27:36.375Z,20.30
2023-04-09T12:29:32.664Z,19.20
2023-04-09T12:31:25.751Z,18.90
2023-04-09T12:33:19.042Z,18.00
2023-04-09T12:35:12.572Z,18.20
2023-04-09T12:37:05.723Z,19.70
2023-04-09T12:38:58.714Z,19.70
2023-04-09T12:40:52.495Z,18.00
2023-04-09T12:42:47.810Z,19.20
2023-04-09T12:44:40.689Z,18.10
2023-04-09T12:46:33.613Z,19.00
2023-04-09T12:48:26.991Z,18.80
2023-04-09T12:50:19.924Z,17.60
2023-04-09T12:52:13.203Z,70.40
2023-04-09T12:54:06.060Z,47.00
2023-04-09T12:55:59.401Z,47.60
2023-04-09T12:57:52.472Z,53.20
2023-04-09T12:59:45.706Z,28.80
2023-04-09T13:01:40.182Z,33.60
2023-04-09T13:03:35.460Z,26.10
2023-04-09T13:05:29.060Z,22.40
2023-04-09T13:07:22.866Z,20.50
2023-04-09T13:09:16.189Z,19.90
2023-04-09T13:11:09.137Z,19.80
2023-04-09T13:13:01.924Z,20.90
2023-04-09T13:14:55.701Z,19.50
2023-04-09T13:16:50.272Z,18.90
2023-04-09T13:18:43.181Z,18.90
2023-04-09T13:20:36.134Z,18.50
2023-04-09T13:22:28.940Z,24.40
2023-04-09T13:24:21.924Z,25.70
2023-04-09T13:26:14.782Z,22.50
2023-04-09T13:28:07.712Z,23.10
2023-04-09T13:30:00.676Z,23.30
2023-04-09T13:31:53.494Z,22.00
2023-04-09T13:33:46.363Z,22.00
2023-04-09T13:35:39.627Z,21.20
2023-04-09T13:37:32.508Z,19.90
2023-04-09T13:39:25.412Z,21.20
2023-04-09T13:41:18.248Z,20.30
2023-04-09T13:43:11.512Z,19.80
2023-04-09T13:45:05.123Z,19.00
2023-04-09T13:46:58.321Z,20.20
2023-04-09T13:48:51.315Z,19.40
2023-04-09T13:50:44.526Z,19.80
2023-04-09T13:52:37.386Z,19.80
2023-04-09T13:54:30.419Z,20.10
2023-04-09T13:56:23.577Z,19.90
2023-04-09T13:58:16.522Z,20.10
2023-04-09T14:00:10.041Z,22.20
2023-04-09T14:02:03.066Z,22.20
2023-04-09T14:03:57.410Z,21.00
2023-04-09T14:05:50.854Z,21.00
2023-04-09T14:07:43.719Z,21.70
2023-04-09T14:09:36.563Z,32.40
2023-04-09T14:11:29.512Z,26.60
2023-04-09T14:13:22.564Z,26.00
2023-04-09T14:15:15.633Z,24.30
2023-04-09T14:17:08.460Z,25.80
2023-04-09T14:19:01.721Z,26.60
2023-04-09T14:20:54.662Z,26.70
2023-04-09T14:22:49.517Z,20.80
2023-04-09T14:24:42.823Z,17.10
2023-04-09T14:26:35.965Z,18.90
2023-04-09T14:28:28.812Z,19.00
2023-04-09T14:30:22.993Z,17.60
2023-04-09T14:32:15.807Z,19.80
2023-04-09T14:34:08.641Z,24.80
2023-04-09T14:36:01.605Z,25.90
2023-04-09T14:37:55.297Z,24.70
2023-04-09T14:39:48.243Z,26.60
2023-04-09T14:41:41.802Z,21.30
2023-04-09T14:43:34.647Z,18.00
2023-04-09T14:45:28.807Z,18.80
2023-04-09T14:47:23.420Z,16.40
2023-04-09T14:49:16.371Z,21.00
2023-04-09T14:51:11.071Z,19.60
2023-04-09T14:53:04.622Z,17.40
2023-04-09T14:54:57.566Z,17.80
2023-04-09T14:56:50.520Z,16.10
2023-04-09T14:58:43.569Z,17.80
2023-04-09T15:00:36.545Z,17.00
2023-04-09T15:02:29.548Z,22.40
2023-04-09T15:04:23.675Z,19.10
2023-04-09T15:06:16.611Z,18.60
2023-04-09T15:08:09.413Z,18.10
2023-04-09T15:10:02.788Z,17.50
2023-04-09T15:11:56.147Z,16.90
2023-04-09T15:13:48.951Z,17.40
2023-04-09T15:15:44.203Z,18.90
2023-04-09T15:17:37.320Z,17.60
2023-04-09T15:19:32.447Z,18.30
2023-04-09T15:21:27.183Z,17.50
2023-04-09T15:23:20.487Z,17.70
2023-04-09T15:25:14.381Z,18.50
2023-04-09T15:27:07.835Z,17.10
2023-04-09T15:29:04.255Z,17.20
2023-04-09T15:30:57.094Z,17.90
2023-04-09T15:32:50.088Z,19.50
2023-04-09T15:34:46.106Z,22.10
2023-04-09T15:36:39.010Z,22.70
2023-04-09T15:38:31.772Z,23.70
2023-04-09T15:40:24.748Z,22.20
2023-04-09T15:42:22.612Z,35.30
2023-04-09T15:44:15.723Z,25.00
2023-04-09T15:46:10.057Z,22.90
2023-04-09T15:48:02.970Z,21.60
2023-04-09T15:49:56.405Z,19.40
2023-04-09T15:51:49.262Z,20.30
2023-04-09T15:53:42.402Z,33.30
2023-04-09T15:55:35.252Z,21.40
2023-04-09T15:57:28.921Z,23.70
2023-04-09T15:59:21.775Z,32.50
2023-04-09T16:01:15.298Z,21.70
2023-04-09T16:03:08.380Z,20.20
2023-04-09T16:05:01.190Z,20.30
2023-04-09T16:06:55.499Z,20.60
2023-04-09T16:08:48.347Z,26.30
2023-04-09T16:10:41.465Z,23.70
2023-04-09T16:12:34.245Z,29.50
2023-04-09T16:14:28.122Z,23.10
2023-04-09T16:16:20.968Z,24.10
2023-04-09T16:18:14.036Z,20.00
2023-04-09T16:20:08.522Z,17.90
2023-04-09T16:22:01.766Z,16.30
2023-04-09T16:23:54.704Z,16.90
2023-04-09T16:25:47.965Z,16.30
2023-04-09T16:27:40.900Z,18.60
2023-04-09T16:29:34.358Z,18.20
2023-04-09T16:31:27.539Z,19.30
2023-04-09T16:33:20.563Z,20.60
2023-04-09T16:35:13.411Z,25.50
2023-04-09T16:37:07.721Z,34.80
2023-04-09T16:39:00.845Z,25.80
2023-04-09T16:40:54.165Z,23.70
2023-04-09T16:42:47.251Z,27.80
2023-04-09T16:44:40.504Z,28.30
2023-04-09T16:46:33.453Z,29.30
2023-04-09T16:48:26.293Z,23.70
2023-04-09T16:50:20.832Z,22.90
2023-04-09T16:52:14.135Z,23.40
2023-04-09T16:54:42.779Z,28.50
2023-04-09T16:57:10.590Z,22.10
2023-04-09T16:59:03.527Z,26.70
2023-04-09T17:00:58.082Z,21.40
2023-04-09T17:02:52.238Z,19.90
2023-04-09T17:04:45.764Z,22.20
2023-04-09T17:06:38.712Z,24.10
2023-04-09T17:08:32.372Z,28.20
2023-04-09T17:10:25.657Z,25.80
2023-04-09T17:12:18.880Z,22.50
2023-04-09T17:14:12.606Z,25.70
2023-04-09T17:16:07.464Z,25.80
2023-04-09T17:18:01.876Z,21.10
2023-04-09T17:19:58.990Z,23.30
2023-04-09T17:21:52.230Z,23.90
2023-04-09T17:23:45.695Z,20.50
2023-04-09T17:25:38.771Z,24.40
2023-04-09T17:27:32.417Z,22.40
2023-04-09T17:29:25.312Z,23.80
2023-04-09T17:31:19.120Z,28.20
2023-04-09T17:33:12.575Z,26.50
2023-04-09T17:35:07.651Z,27.60
2023-04-09T17:37:00.625Z,33.90
2023-04-09T17:38:54.768Z,36.70
2023-04-09T17:40:48.158Z,43.40
2023-04-09T17:42:43.053Z,38.50
2023-04-09T17:44:36.406Z,39.50
2023-04-09T17:46:30.400Z,32.60
2023-04-09T17:48:23.538Z,61.50
2023-04-09T17:50:17.243Z,42.10
2023-04-09T17:52:10.773Z,28.60
2023-04-09T17:54:04.743Z,30.90
2023-04-09T17:55:58.607Z,27.10
2023-04-09T17:57:51.869Z,28.40
2023-04-09T17:59:44.913Z,27.90
2023-04-09T18:01:38.579Z,29.80
2023-04-09T18:03:31.777Z,30.70
2023-04-09T18:05:26.196Z,33.90
2023-04-09T18:07:19.280Z,35.50
2023-04-09T18:09:13.548Z,38.30
2023-04-09T18:11:12.618Z,37.70
2023-04-09T18:13:06.627Z,36.50
2023-04-09T18:15:00.473Z,38.20
2023-04-09T18:16:53.426Z,33.00
2023-04-09T18:18:46.886Z,29.90
2023-04-09T18:20:40.064Z,27.00
2023-04-09T18:22:34.009Z,28.00
2023-04-09T18:24:28.832Z,28.60
2023-04-09T18:26:24.676Z,29.70
2023-04-09T18:28:19.313Z,31.30
2023-04-09T18:30:12.465Z,35.90
2023-04-09T18:32:05.414Z,34.90
2023-04-09T18:33:58.362Z,34.50
2023-04-09T18:35:51.814Z,36.00
2023-04-09T18:37:46.006Z,34.00
2023-04-09T18:39:39.167Z,33.70
2023-04-09T18:41:33.118Z,35.80
2023-04-09T18:43:26.277Z,32.90
2023-04-09T18:45:20.155Z,30.70
2023-04-09T18:47:13.203Z,31.40
2023-04-09T18:49:06.256Z,35.00
2023-04-09T18:51:01.647Z,36.00
2023-04-09T18:52:54.596Z,35.80
2023-04-09T18:54:48.409Z,40.00
2023-04-09T18:56:41.726Z,33.10
2023-04-09T18:58:36.460Z,32.00
2023-04-09T19:00:31.062Z,33.50
2023-04-09T19:02:24.562Z,37.50
2023-04-09T19:04:18.286Z,38.10
2023-04-09T19:06:18.317Z,41.60
2023-04-09T19:08:13.238Z,42.60
2023-04-09T19:10:07.281Z,43.90
2023-04-09T19:12:01.703Z,54.70
2023-04-09T19:13:54.673Z,46.20
2023-04-09T19:15:48.011Z,44.90
2023-04-09T19:17:41.329Z,43.30
2023-04-09T19:19:35.084Z,39.00
2023-04-09T19:21:29.118Z,39.00
2023-04-09T19:23:23.155Z,40.50
2023-04-09T19:25:17.474Z,41.60
2023-04-09T19:27:11.890Z,38.30
2023-04-09T19:29:05.496Z,39.70
2023-04-09T19:30:59.659Z,34.80
2023-04-09T19:32:54.548Z,30.80
2023-04-09T19:34:47.621Z,30.70
2023-04-09T19:36:40.976Z,34.50
2023-04-09T19:38:34.340Z,39.90
2023-04-09T19:40:27.687Z,52.90
2023-04-09T19:42:21.251Z,38.60
2023-04-09T19:44:14.098Z,33.60
2023-04-09T19:46:09.521Z,34.10
2023-04-09T19:48:02.688Z,35.20
2023-04-09T19:49:55.623Z,35.60
2023-04-09T19:51:49.675Z,34.90
2023-04-09T19:53:47.443Z,31.60
2023-04-09T19:55:41.923Z,31.10
2023-04-09T19:57:35.491Z,30.10
2023-04-09T19:59:29.154Z,30.00
2023-04-09T20:01:22.159Z,27.00
2023-04-09T20:03:15.842Z,27.80
2023-04-09T20:05:10.363Z,28.50
2023-04-09T20:07:04.437Z,29.20
2023-04-09T20:08:57.473Z,31.80
2023-04-09T20:10:50.833Z,32.10
2023-04-09T20:12:47.784Z,30.40
2023-04-09T20:14:40.663Z,31.20
2023-04-09T20:16:33.594Z,31.10
2023-04-09T20:18:26.729Z,30.70
2023-04-09T20:20:20.397Z,36.40
2023-04-09T20:22:13.293Z,38.70
2023-04-09T20:24:06.939Z,41.30
2023-04-09T20:26:00.050Z,41.60
2023-04-09T20:27:53.314Z,33.40
2023-04-09T20:29:46.254Z,33.00
2023-04-09T20:31:39.057Z,40.80
2023-04-09T20:33:32.368Z,44.20
2023-04-09T20:35:25.299Z,37.10
2023-04-09T20:37:18.148Z,36.40
2023-04-09T20:39:11.766Z,37.00
2023-04-09T20:41:04.863Z,38.70
2023-04-09T20:42:57.708Z,43.10
2023-04-09T20:44:50.554Z,46.50
2023-04-09T20:46:44.148Z,52.70
2023-04-09T20:48:37.578Z,54.40
2023-04-09T20:50:31.248Z,55.10
2023-04-09T20:52:24.909Z,51.80
2023-04-09T20:54:18.288Z,51.10
2023-04-09T20:56:12.552Z,44.70
2023-04-09T20:58:05.899Z,39.20
2023-04-09T21:00:01.715Z,35.90
2023-04-09T21:01:57.645Z,31.90
2023-04-09T21:03:51.056Z,30.80
2023-04-09T21:05:44.045Z,27.20
2023-04-09T21:07:36.988Z,25.90
2023-04-09T21:09:31.539Z,26.40
2023-04-09T21:11:24.522Z,26.80
2023-04-09T21:13:17.470Z,27.50
2023-04-09T21:15:11.218Z,26.60
2023-04-09T21:17:04.136Z,28.70
2023-04-09T21:18:57.498Z,28.60
2023-04-09T21:20:51.113Z,30.70
2023-04-09T21:22:44.059Z,33.00
2023-04-09T21:24:36.905Z,31.50
2023-04-09T21:26:38.682Z,31.00
2023-04-09T21:28:42.978Z,29.90
2023-04-09T21:30:38.106Z,29.80
2023-04-09T21:32:31.493Z,30.40
2023-04-09T21:34:24.858Z,30.00
2023-04-09T21:36:19.470Z,30.10
2023-04-09T21:38:13.159Z,28.60
2023-04-09T21:40:07.441Z,28.80
2023-04-09T21:42:01.257Z,27.60
2023-04-09T21:43:55.022Z,28.20
2023-04-09T21:45:49.114Z,30.10
2023-04-09T21:47:43.142Z,30.10
2023-04-09T21:49:39.413Z,27.50
2023-04-09T21:51:32.697Z,27.40
2023-04-09T21:53:25.794Z,27.50
2023-04-09T21:55:18.583Z,25.80
2023-04-09T21:57:11.759Z,27.90
2023-04-09T21:59:05.661Z,28.20
2023-04-09T22:00:58.527Z,28.40
2023-04-09T22:02:51.882Z,30.60
2023-04-09T22:04:45.223Z,30.70
2023-04-09T22:06:38.179Z,30.90
2023-04-09T22:08:30.926Z,30.80
2023-04-09T22:10:24.436Z,31.40
2023-04-09T22:12:17.482Z,32.10
2023-04-09T22:14:11.716Z,34.00
2023-04-09T22:16:05.613Z,33.40
2023-04-09T22:17:58.772Z,34.60
2023-04-09T22:19:51.744Z,35.10
2023-04-09T22:21:44.687Z,35.00
2023-04-09T22:23:37.497Z,35.00
2023-04-09T22:25:35.021Z,34.50
2023-04-09T22:27:28.133Z,34.60
2023-04-09T22:29:20.983Z,34.10
2023-04-09T22:31:13.895Z,35.80
2023-04-09T22:33:06.913Z,34.40
2023-04-09T22:34:59.699Z,39.20
2023-04-09T22:36:52.577Z,39.90
2023-04-09T22:38:45.922Z,41.00
2023-04-09T22:40:38.768Z,39.70
2023-04-09T22:42:32.431Z,40.90
2023-04-09T22:44:25.805Z,42.50
2023-04-09T22:46:18.785Z,39.90
2023-04-09T22:48:11.684Z,37.60
2023-04-09T22:50:08.360Z,36.70
2023-04-09T22:52:01.166Z,36.60
2023-04-09T22:53:54.012Z,35.90
2023-04-09T22:55:48.890Z,35.00
2023-04-09T22:57:43.157Z,35.50
2023-04-09T23:01:32.175Z,34.10
2023-04-09T23:03:25.752Z,33.80
2023-04-09T23:05:18.865Z,35.80
2023-04-09T23:07:11.714Z,33.60
2023-04-09T23:09:04.659Z,33.10
2023-04-09T23:10:57.539Z,35.10
2023-04-09T23:12:50.760Z,31.70
2023-04-09T23:14:43.605Z,30.80
2023-04-09T23:16:36.569Z,29.30
2023-04-09T23:18:29.498Z,29.80
2023-04-09T23:20:22.771Z,29.00
2023-04-09T23:22:16.010Z,29.20
2023-04-09T23:24:08.857Z,30.30
2023-04-09T23:26:02.229Z,30.40
2023-04-09T23:27:55.466Z,34.70
2023-04-09T23:29:48.519Z,34.80
2023-04-09T23:31:41.583Z,32.70
2023-04-09T23:33:34.624Z,36.60
2023-04-09T23:35:27.603Z,38.20
2023-04-09T23:37:20.526Z,39.20
2023-04-09T23:39:13.379Z,35.90
2023-04-09T23:41:06.621Z,33.20
2023-04-09T23:42:59.406Z,32.40
2023-04-09T23:44:52.308Z,30.00
2023-04-09T23:46:45.180Z,31.40
2023-04-09T23:48:38.015Z,30.90
2023-04-09T23:50:31.050Z,30.60
2023-04-09T23:52:24.060Z,30.30
2023-04-09T23:54:16.956Z,31.10
2023-04-09T23:56:09.896Z,31.60
2023-04-09T23:58:02.849Z,31.90
2023-04-09T23:59:56.307Z,33.60
